Time;durP1;ratioP1;P1;durP2;ratioP2;P2;SDS_P1;SDS_P2;PMS_P1;PMS_P2;Temp;Humidity;BMP_temperature;BMP_pressure;BME280_temperature;BME280_humidity;BME280_pressure;Samples;Min_cycle;Max_cycle;Signal;HPM_P1;HPM_P2
2022/05/21 00:00:32;;;;;;;5.72;3.38;;;20.70;66.10;;;;;;5050304;28;20266;-67
2022/05/21 00:02:58;;;;;;;3.83;3.13;;;20.70;67.10;;;;;;5051175;28;20504;-67
2022/05/21 00:05:27;;;;;;;3.35;3.05;;;20.60;67.40;;;;;;5050681;28;20037;-68
2022/05/21 00:07:53;;;;;;;7.88;3.30;;;20.50;67.80;;;;;;5052231;28;20562;-67
2022/05/21 00:10:21;;;;;;;5.70;3.35;;;20.40;67.80;;;;;;5053294;28;20425;-67
2022/05/21 00:12:47;;;;;;;4.60;3.30;;;20.30;68.10;;;;;;5051314;28;20509;-67
2022/05/21 00:15:16;;;;;;;5.28;3.50;;;20.30;68.60;;;;;;5055978;28;20025;-67
2022/05/21 00:17:42;;;;;;;6.78;3.30;;;20.20;69.70;;;;;;5056964;28;20036;-68
2022/05/21 00:20:47;;;;;;;6.22;3.72;;;20.10;69.30;;;;;;5055606;28;20040;-67
2022/05/21 00:22:54;;;;;;;4.85;3.67;;;20.10;69.70;;;;;;5055027;28;20328;-66
2022/05/21 00:25:20;;;;;;;4.63;3.15;;;20.00;69.60;;;;;;5053931;28;20025;-66
2022/05/21 00:27:46;;;;;;;5.85;3.42;;;20.00;69.90;;;;;;5057008;28;20563;-66
2022/05/21 00:30:13;;;;;;;5.95;3.60;;;20.00;70.40;;;;;;5055125;28;20036;-67
2022/05/21 00:32:39;;;;;;;5.00;3.60;;;19.90;70.70;;;;;;5056300;28;20044;-67
2022/05/21 00:35:06;;;;;;;4.18;3.20;;;19.80;70.90;;;;;;5054725;28;20032;-66
2022/05/21 00:37:31;;;;;;;4.45;3.40;;;19.80;70.90;;;;;;5058686;28;20036;-66
2022/05/21 00:39:57;;;;;;;5.05;3.20;;;19.70;70.60;;;;;;5054807;28;20040;-66
2022/05/21 00:42:22;;;;;;;5.13;3.40;;;19.70;70.60;;;;;;5055012;28;20031;-65
2022/05/21 00:44:48;;;;;;;5.00;3.33;;;19.70;70.80;;;;;;5056044;28;20037;-65
2022/05/21 00:47:14;;;;;;;2.90;2.70;;;19.70;71.00;;;;;;5055399;28;20454;-66
2022/05/21 00:49:39;;;;;;;3.92;3.10;;;19.80;71.30;;;;;;5056265;28;20037;-66
2022/05/21 00:52:11;;;;;;;5.22;3.08;;;19.80;70.80;;;;;;5054497;28;20033;-66
2022/05/21 00:54:53;;;;;;;4.13;2.97;;;19.80;70.80;;;;;;5057530;28;20040;-66
2022/05/21 00:57:32;;;;;;;4.80;2.90;;;19.80;72.10;;;;;;5056751;28;20044;-66
2022/05/21 01:00:10;;;;;;;3.80;2.97;;;19.80;70.30;;;;;;5056848;28;20128;-66
2022/05/21 01:02:43;;;;;;;4.53;2.97;;;19.70;70.10;;;;;;5058041;28;20116;-67
2022/05/21 01:05:13;;;;;;;5.65;3.00;;;19.70;70.40;;;;;;5055478;28;20039;-66
2022/05/21 01:07:41;;;;;;;4.43;3.20;;;19.70;70.40;;;;;;5056476;28;20044;-66
2022/05/21 01:10:09;;;;;;;4.65;3.10;;;19.70;70.40;;;;;;5057189;28;20040;-66
2022/05/21 01:12:38;;;;;;;4.28;2.83;;;19.70;70.30;;;;;;5046710;28;20037;-66
2022/05/21 01:15:09;;;;;;;3.10;2.75;;;19.70;70.40;;;;;;5048701;28;20059;-67
2022/05/21 01:17:35;;;;;;;3.55;2.80;;;19.70;70.10;;;;;;5052112;28;20033;-66
2022/05/21 01:20:03;;;;;;;2.85;2.63;;;19.70;69.70;;;;;;5051469;28;20099;-66
2022/05/21 01:22:44;;;;;;;2.80;2.40;;;19.70;69.50;;;;;;5051117;28;20024;-66
2022/05/21 01:25:11;;;;;;;4.43;2.45;;;19.70;70.80;;;;;;5051049;28;20040;-66
2022/05/21 01:27:39;;;;;;;2.92;2.60;;;19.70;69.60;;;;;;5049388;28;20576;-67
2022/05/21 01:30:08;;;;;;;3.33;2.80;;;19.70;69.50;;;;;;5047272;28;20532;-67
2022/05/21 01:32:34;;;;;;;4.45;2.75;;;19.60;69.50;;;;;;5050425;28;20041;-66
2022/05/21 01:35:01;;;;;;;3.03;2.70;;;19.60;69.10;;;;;;5048413;28;20035;-67
2022/05/21 01:37:27;;;;;;;4.93;3.00;;;19.60;69.20;;;;;;5051430;28;20624;-66
2022/05/21 01:39:53;;;;;;;4.28;2.72;;;19.50;69.20;;;;;;5051759;28;20037;-66
2022/05/21 01:42:18;;;;;;;3.88;2.60;;;19.50;69.20;;;;;;5043885;28;20029;-66
2022/05/21 01:44:46;;;;;;;3.72;2.67;;;19.40;69.20;;;;;;5047596;28;20040;-64
2022/05/21 01:47:14;;;;;;;4.07;2.38;;;19.40;69.20;;;;;;5049800;28;20525;-66
2022/05/21 01:49:41;;;;;;;2.78;2.55;;;19.40;69.00;;;;;;5052643;28;20029;-66
2022/05/21 01:52:09;;;;;;;3.25;2.78;;;19.30;69.00;;;;;;5048930;28;20055;-67
2022/05/21 01:54:35;;;;;;;3.90;2.60;;;19.30;69.20;;;;;;5049291;28;20033;-66
2022/05/21 01:57:01;;;;;;;2.90;2.50;;;19.20;69.00;;;;;;5050251;28;20029;-67
2022/05/21 01:59:27;;;;;;;4.18;2.55;;;19.20;69.20;;;;;;5048193;28;20033;-66
2022/05/21 02:01:53;;;;;;;3.88;2.63;;;19.10;69.00;;;;;;5046319;28;20048;-66
2022/05/21 02:04:20;;;;;;;2.65;2.42;;;19.10;69.10;;;;;;5050404;28;20044;-66
2022/05/21 02:06:46;;;;;;;2.97;2.53;;;19.10;69.20;;;;;;5051259;28;20052;-67
2022/05/21 02:09:12;;;;;;;2.53;2.33;;;19.00;69.00;;;;;;5048935;28;20078;-67
2022/05/21 02:11:39;;;;;;;2.50;2.33;;;19.00;68.90;;;;;;5046577;28;20072;-65
2022/05/21 02:14:05;;;;;;;3.50;2.47;;;19.00;69.00;;;;;;5049849;28;20037;-66
2022/05/21 02:16:33;;;;;;;3.33;2.35;;;19.00;69.20;;;;;;5052058;28;20087;-67
2022/05/21 02:19:01;;;;;;;3.20;2.40;;;18.90;69.00;;;;;;5048166;28;20108;-65
2022/05/21 02:21:28;;;;;;;2.40;2.20;;;18.90;68.90;;;;;;5049434;28;20052;-67
2022/05/21 02:23:54;;;;;;;2.20;2.10;;;18.80;68.80;;;;;;5049846;28;20064;-67
2022/05/21 02:26:20;;;;;;;2.67;2.40;;;18.80;68.50;;;;;;5049467;28;20120;-67
2022/05/21 02:28:45;;;;;;;2.72;2.33;;;18.80;68.40;;;;;;5048502;28;20071;-66
2022/05/21 02:31:11;;;;;;;2.85;2.45;;;18.70;69.20;;;;;;5049152;28;20056;-66
2022/05/21 02:33:37;;;;;;;3.05;2.30;;;18.70;68.50;;;;;;5050129;28;20040;-67
2022/05/21 02:36:03;;;;;;;2.47;2.15;;;18.70;68.30;;;;;;5047947;28;20400;-66
2022/05/21 02:41:15;;;;;;;2.23;2.00;;;18.60;68.40;;;;;;5049307;28;20076;-67
2022/05/21 02:43:43;;;;;;;4.13;2.30;;;18.60;68.40;;;;;;5049921;28;20290;-66
2022/05/21 02:46:09;;;;;;;2.88;2.10;;;18.50;68.50;;;;;;5048227;28;20033;-66
2022/05/21 02:48:36;;;;;;;4.63;2.30;;;18.50;68.50;;;;;;5051943;28;20037;-67
2022/05/21 02:51:02;;;;;;;2.47;2.00;;;18.50;68.60;;;;;;5054416;28;20035;-65
2022/05/21 02:53:28;;;;;;;3.05;2.40;;;18.50;68.90;;;;;;5052884;28;20029;-66
2022/05/21 02:55:55;;;;;;;2.67;2.30;;;18.40;68.80;;;;;;5052045;28;20349;-67
2022/05/21 02:58:22;;;;;;;3.05;1.90;;;18.40;68.90;;;;;;5049509;28;20036;-66
2022/05/21 03:00:48;;;;;;;2.55;2.05;;;18.40;69.00;;;;;;5050646;28;20037;-67
2022/05/21 03:03:14;;;;;;;3.65;2.22;;;18.40;69.00;;;;;;5051861;28;20110;-67
2022/05/21 03:05:41;;;;;;;2.75;2.30;;;18.40;69.10;;;;;;5054731;28;20302;-67
2022/05/21 03:10:52;;;;;;;3.58;2.40;;;18.40;69.10;;;;;;5052046;28;20457;-67
2022/05/21 03:13:19;;;;;;;2.85;2.08;;;18.30;68.80;;;;;;5057624;28;20052;-67
2022/05/21 03:15:44;;;;;;;5.75;2.58;;;18.30;68.80;;;;;;5052294;28;20111;-66
2022/05/21 03:18:12;;;;;;;2.50;2.30;;;18.30;69.00;;;;;;5053159;28;20112;-66
2022/05/21 03:20:39;;;;;;;2.40;2.20;;;18.30;68.80;;;;;;5054138;28;20033;-67
2022/05/21 03:23:06;;;;;;;4.10;2.08;;;18.20;68.70;;;;;;5054971;28;20039;-66
2022/05/21 03:25:32;;;;;;;2.15;1.92;;;18.20;68.70;;;;;;5049824;28;20060;-66
2022/05/21 03:27:58;;;;;;;2.97;1.98;;;18.20;68.80;;;;;;5054320;28;20037;-67
2022/05/21 03:30:27;;;;;;;3.72;2.03;;;18.20;68.80;;;;;;5052308;28;20041;-67
2022/05/21 03:32:53;;;;;;;3.47;1.98;;;18.20;68.90;;;;;;5054394;28;20094;-67
2022/05/21 03:35:20;;;;;;;2.40;2.10;;;18.20;68.70;;;;;;5052681;28;20626;-67
2022/05/21 03:37:46;;;;;;;2.25;1.90;;;18.20;68.60;;;;;;5053180;28;20037;-66
2022/05/21 03:40:14;;;;;;;3.10;2.20;;;18.20;68.60;;;;;;5050728;28;20028;-66
2022/05/21 03:42:40;;;;;;;2.40;2.20;;;18.20;68.60;;;;;;5051112;28;20043;-66
2022/05/21 03:45:07;;;;;;;3.47;2.05;;;18.20;68.40;;;;;;5053097;28;20127;-67
2022/05/21 03:47:33;;;;;;;2.78;2.28;;;18.20;68.40;;;;;;5052415;28;20702;-66
2022/05/21 03:49:59;;;;;;;2.70;2.13;;;18.20;68.30;;;;;;5055000;28;20506;-67
2022/05/21 03:52:25;;;;;;;4.82;2.15;;;18.10;68.10;;;;;;5051770;28;20167;-67
2022/05/21 03:54:50;;;;;;;2.25;2.05;;;18.10;68.20;;;;;;5050081;28;20033;-66
2022/05/21 03:57:16;;;;;;;2.38;2.17;;;18.10;68.30;;;;;;5051345;28;20052;-66
2022/05/21 03:59:43;;;;;;;2.65;1.95;;;18.00;68.50;;;;;;5053840;28;20041;-66
2022/05/21 04:02:09;;;;;;;2.20;2.00;;;17.90;68.50;;;;;;5049793;28;20074;-67
2022/05/21 04:04:36;;;;;;;2.70;1.98;;;17.90;68.80;;;;;;5050682;28;20044;-67
2022/05/21 04:07:01;;;;;;;2.50;2.30;;;17.80;68.80;;;;;;5053155;28;20036;-67
2022/05/21 04:09:30;;;;;;;2.50;2.30;;;17.80;68.90;;;;;;5050741;28;20497;-67
2022/05/21 04:11:56;;;;;;;2.10;1.90;;;17.70;69.00;;;;;;5049528;28;20531;-66
2022/05/21 04:14:27;;;;;;;2.67;2.22;;;17.60;69.10;;;;;;5048887;28;20052;-67
2022/05/21 04:16:54;;;;;;;2.50;2.10;;;17.60;69.30;;;;;;5049143;28;20233;-65
2022/05/21 04:19:20;;;;;;;5.55;2.42;;;17.50;69.50;;;;;;5050483;28;20036;-66
2022/05/21 04:21:45;;;;;;;2.60;2.40;;;17.40;69.70;;;;;;5053867;28;20523;-66
2022/05/21 04:24:11;;;;;;;2.20;1.95;;;17.40;70.00;;;;;;5051189;28;20377;-66
2022/05/21 04:26:37;;;;;;;2.20;2.00;;;17.30;70.30;;;;;;5050668;28;20041;-66
2022/05/21 04:29:02;;;;;;;3.78;2.30;;;17.30;70.40;;;;;;5051939;28;20033;-66
2022/05/21 04:31:28;;;;;;;4.30;2.20;;;17.30;70.40;;;;;;5048603;28;20029;-67
2022/05/21 04:33:53;;;;;;;4.75;2.47;;;17.30;70.40;;;;;;5050634;28;20051;-66
2022/05/21 04:36:19;;;;;;;2.92;2.20;;;17.20;70.60;;;;;;5008113;28;1113995;-66
2022/05/21 04:38:50;;;;;;;2.72;2.20;;;17.20;70.80;;;;;;5049415;28;20036;-67
2022/05/21 04:41:17;;;;;;;2.92;2.38;;;17.10;71.30;;;;;;5051017;28;20025;-66
2022/05/21 04:43:42;;;;;;;3.30;2.15;;;17.10;71.30;;;;;;5050800;28;20035;-66
2022/05/21 04:46:09;;;;;;;3.00;2.05;;;17.00;71.40;;;;;;5052064;28;20041;-66
2022/05/21 04:48:35;;;;;;;2.67;2.20;;;17.00;71.80;;;;;;5050520;28;20033;-66
2022/05/21 04:51:03;;;;;;;2.83;2.50;;;17.00;71.80;;;;;;5052664;28;20031;-66
2022/05/21 04:53:29;;;;;;;2.35;2.15;;;17.00;72.30;;;;;;5051133;28;20036;-66
2022/05/21 04:55:55;;;;;;;4.43;2.03;;;17.00;71.90;;;;;;5051460;28;20037;-66
2022/05/21 04:58:21;;;;;;;2.17;2.00;;;17.00;71.80;;;;;;5048719;28;20029;-66
2022/05/21 05:00:47;;;;;;;2.17;1.85;;;17.10;71.80;;;;;;5051813;28;20106;-66
2022/05/21 05:03:15;;;;;;;3.22;2.17;;;17.10;71.90;;;;;;5052379;28;20039;-66
2022/05/21 05:05:42;;;;;;;3.70;1.98;;;17.10;71.70;;;;;;5062539;28;20037;-66
2022/05/21 05:08:08;;;;;;;1.98;1.88;;;17.10;71.40;;;;;;5050264;28;20111;-67
2022/05/21 05:10:36;;;;;;;2.55;1.80;;;17.10;71.40;;;;;;5050959;28;20037;-67
2022/05/21 05:13:02;;;;;;;2.65;2.00;;;17.10;71.10;;;;;;5048589;28;20045;-66
2022/05/21 05:15:28;;;;;;;2.13;1.90;;;17.20;71.10;;;;;;5048297;28;20139;-67
2022/05/21 05:18:02;;;;;;;3.03;2.03;;;17.20;71.00;;;;;;5052175;28;20033;-67
2022/05/21 05:20:28;;;;;;;2.60;2.25;;;17.20;71.40;;;;;;5048853;28;20091;-67
2022/05/21 05:22:54;;;;;;;3.33;1.80;;;17.30;71.10;;;;;;5052786;28;20048;-67
2022/05/21 05:25:19;;;;;;;3.85;2.30;;;17.40;71.10;;;;;;5046603;28;20321;-67
2022/05/21 05:27:49;;;;;;;2.50;1.90;;;17.40;70.70;;;;;;5052442;28;20047;-67
2022/05/21 05:30:16;;;;;;;5.30;1.80;;;17.50;70.90;;;;;;5048282;28;22497;-67
2022/05/21 05:32:42;;;;;;;2.08;1.88;;;17.50;70.90;;;;;;5050228;28;20195;-67
2022/05/21 05:35:08;;;;;;;1.92;1.83;;;17.50;69.40;;;;;;5046288;28;20109;-66
2022/05/21 05:37:34;;;;;;;1.60;1.50;;;17.60;69.20;;;;;;5052013;28;20040;-66
2022/05/21 05:39:59;;;;;;;2.15;1.65;;;17.60;68.80;;;;;;5046830;28;20039;-64
2022/05/21 05:42:26;;;;;;;2.90;1.70;;;17.60;68.40;;;;;;5048998;28;20044;-67
2022/05/21 05:44:52;;;;;;;2.30;1.73;;;17.60;68.60;;;;;;5047578;28;20116;-67
2022/05/21 05:47:17;;;;;;;2.42;1.52;;;17.70;68.60;;;;;;5048104;28;20120;-67
2022/05/21 05:49:43;;;;;;;1.65;1.55;;;17.70;68.80;;;;;;5054772;28;20129;-67
2022/05/21 05:52:09;;;;;;;2.05;1.50;;;17.70;68.00;;;;;;5050321;28;20624;-66
2022/05/21 05:54:35;;;;;;;3.10;1.67;;;17.80;67.30;;;;;;5047480;28;20037;-66
2022/05/21 05:57:02;;;;;;;2.08;1.50;;;17.80;67.40;;;;;;5048717;28;20048;-66
2022/05/21 06:04:56;;;;;;;3.15;1.50;;;17.80;66.70;;;;;;5051646;28;20546;-67
2022/05/21 06:07:22;;;;;;;2.10;1.70;;;17.90;66.50;;;;;;5046115;28;20072;-66
2022/05/21 06:09:49;;;;;;;3.38;1.45;;;17.90;65.90;;;;;;5048019;28;20411;-65
2022/05/21 06:12:14;;;;;;;2.30;1.58;;;17.90;65.40;;;;;;5048980;28;20034;-66
2022/05/21 06:14:42;;;;;;;1.42;1.33;;;17.90;65.50;;;;;;5046359;28;20603;-67
2022/05/21 06:17:09;;;;;;;1.98;1.40;;;17.90;66.00;;;;;;5052484;28;20496;-67
2022/05/21 06:19:35;;;;;;;1.90;1.48;;;17.90;65.00;;;;;;5050273;28;20431;-65
2022/05/21 06:22:02;;;;;;;1.40;1.30;;;17.90;65.00;;;;;;5049620;28;20871;-67
2022/05/21 06:24:28;;;;;;;2.03;1.55;;;17.90;65.40;;;;;;5048069;28;20511;-67
2022/05/21 06:26:54;;;;;;;1.65;1.50;;;18.00;65.30;;;;;;5046479;28;20064;-67
2022/05/21 06:29:20;;;;;;;2.60;1.50;;;18.00;65.20;;;;;;5051348;28;20060;-66
2022/05/21 06:31:46;;;;;;;1.80;1.38;;;18.00;65.50;;;;;;5052870;28;20043;-66
2022/05/21 06:34:11;;;;;;;1.25;1.02;;;18.00;65.20;;;;;;5050514;28;20036;-66
2022/05/21 06:36:37;;;;;;;1.52;1.42;;;18.00;64.60;;;;;;5047394;28;20043;-67
2022/05/21 06:39:03;;;;;;;1.15;1.15;;;18.10;64.30;;;;;;5043890;28;20028;-66
2022/05/21 06:41:31;;;;;;;1.30;1.20;;;18.10;64.00;;;;;;5048902;28;20291;-67
2022/05/21 06:43:57;;;;;;;1.20;1.10;;;18.10;64.60;;;;;;5051481;28;20145;-67
2022/05/21 06:46:23;;;;;;;1.60;1.45;;;18.10;63.10;;;;;;5051153;28;20120;-66
2022/05/21 06:48:48;;;;;;;1.40;1.25;;;18.20;63.30;;;;;;5051046;28;20120;-64
2022/05/21 06:51:14;;;;;;;2.17;1.40;;;18.20;63.50;;;;;;5040621;28;20116;-66
2022/05/21 06:53:40;;;;;;;1.27;1.17;;;18.20;63.40;;;;;;5045620;28;20103;-65
2022/05/21 06:56:08;;;;;;;1.10;1.00;;;18.20;62.70;;;;;;5043090;28;20120;-66
2022/05/21 06:58:34;;;;;;;1.35;1.20;;;18.30;62.50;;;;;;5047052;28;20041;-66
2022/05/21 07:01:00;;;;;;;1.20;1.10;;;18.30;62.00;;;;;;5051143;28;20036;-67
2022/05/21 07:03:26;;;;;;;1.17;1.02;;;18.30;61.50;;;;;;5041287;28;20047;-65
2022/05/21 07:08:36;;;;;;;2.22;1.00;;;18.40;61.70;;;;;;5040387;28;20040;-66
2022/05/21 07:11:02;;;;;;;1.85;1.10;;;18.40;61.50;;;;;;5044344;28;20515;-66
2022/05/21 07:13:30;;;;;;;1.30;0.80;;;18.50;60.70;;;;;;5044735;28;20040;-66
2022/05/21 07:15:57;;;;;;;0.80;0.75;;;18.50;60.40;;;;;;5047346;28;20393;-65
2022/05/21 07:18:24;;;;;;;2.05;0.90;;;18.50;60.50;;;;;;5053949;28;20032;-65
2022/05/21 07:20:50;;;;;;;1.10;1.00;;;18.50;59.80;;;;;;5046441;28;20076;-68
2022/05/21 07:23:17;;;;;;;1.40;0.90;;;18.50;59.60;;;;;;5046729;28;20033;-67
2022/05/21 07:25:44;;;;;;;0.93;0.73;;;18.60;59.60;;;;;;5047277;28;20040;-67
2022/05/21 07:28:10;;;;;;;2.15;0.90;;;18.60;59.60;;;;;;5044054;28;20085;-66
2022/05/21 07:30:35;;;;;;;1.45;1.08;;;18.60;59.20;;;;;;5049600;28;20131;-66
2022/05/21 07:33:01;;;;;;;1.85;0.80;;;18.70;59.10;;;;;;5048667;28;20032;-65
2022/05/21 07:35:27;;;;;;;6.18;1.20;;;18.70;59.20;;;;;;5047099;28;20036;-65
2022/05/21 07:37:54;;;;;;;1.60;0.80;;;18.80;59.30;;;;;;5048951;28;20059;-66
2022/05/21 07:40:21;;;;;;;1.73;0.80;;;18.90;59.00;;;;;;5048523;28;20094;-63
2022/05/21 07:42:47;;;;;;;1.27;0.98;;;18.90;59.30;;;;;;5053632;28;20037;-66
2022/05/21 07:45:16;;;;;;;0.93;0.82;;;18.90;59.00;;;;;;5050242;28;20247;-67
2022/05/21 07:47:41;;;;;;;1.45;0.90;;;19.00;58.60;;;;;;5056131;28;20500;-66
2022/05/21 07:50:09;;;;;;;1.75;0.75;;;19.10;58.60;;;;;;5051027;28;20090;-66
2022/05/21 07:52:35;;;;;;;1.75;0.73;;;19.20;58.50;;;;;;5053871;28;20040;-66
2022/05/21 07:55:00;;;;;;;1.10;0.88;;;19.20;58.00;;;;;;5068272;28;20992;-66
2022/05/21 07:57:26;;;;;;;0.98;0.80;;;19.30;58.70;;;;;;5046686;28;21266;-66
2022/05/21 07:59:52;;;;;;;0.93;0.77;;;19.30;58.00;;;;;;5052112;28;20037;-67
2022/05/21 08:02:19;;;;;;;2.17;0.88;;;19.30;58.10;;;;;;5054413;28;20055;-66
2022/05/21 08:04:46;;;;;;;1.58;0.88;;;19.40;58.10;;;;;;5049406;28;20532;-67
2022/05/21 08:07:12;;;;;;;0.95;0.93;;;19.40;57.80;;;;;;5050170;28;20060;-64
2022/05/21 08:09:38;;;;;;;1.48;1.00;;;19.40;57.50;;;;;;5047213;28;20465;-67
2022/05/21 08:12:04;;;;;;;1.55;1.10;;;19.50;57.40;;;;;;5049046;28;20029;-66
2022/05/21 08:14:31;;;;;;;1.42;1.10;;;19.50;57.10;;;;;;5045808;28;20033;-66
2022/05/21 08:16:57;;;;;;;1.17;1.08;;;19.50;57.40;;;;;;5052097;28;20033;-67
2022/05/21 08:19:22;;;;;;;1.50;0.90;;;19.60;57.60;;;;;;5048864;28;20085;-66
2022/05/21 08:21:48;;;;;;;1.65;1.00;;;19.60;58.00;;;;;;5050633;28;20037;-65
2022/05/21 08:26:59;;;;;;;0.95;0.80;;;19.70;57.60;;;;;;5050489;28;20090;-63
2022/05/21 08:29:33;;;;;;;0.93;0.70;;;19.80;57.00;;;;;;5048741;28;20447;-65
2022/05/21 08:32:00;;;;;;;1.58;0.70;;;19.90;56.40;;;;;;5046031;28;20107;-67
2022/05/21 08:34:27;;;;;;;0.70;0.65;;;19.90;56.70;;;;;;5050131;28;20044;-65
2022/05/21 08:36:54;;;;;;;2.22;0.90;;;20.00;56.20;;;;;;5053565;28;20086;-67
2022/05/21 08:39:20;;;;;;;0.80;0.60;;;20.00;56.20;;;;;;5049777;28;20028;-66
2022/05/21 08:42:11;;;;;;;2.00;0.70;;;20.10;56.60;;;;;;5048394;28;20033;-67
2022/05/21 08:44:52;;;;;;;0.70;0.70;;;20.20;55.80;;;;;;5046440;28;20037;-67
2022/05/21 08:47:30;;;;;;;1.23;0.70;;;20.30;55.80;;;;;;5046261;28;20026;-67
2022/05/21 08:49:58;;;;;;;0.80;0.60;;;20.30;54.40;;;;;;5054592;28;20033;-67
2022/05/21 08:52:43;;;;;;;0.70;0.68;;;20.40;55.00;;;;;;5044685;28;20570;-67
2022/05/21 08:55:15;;;;;;;1.20;0.70;;;20.50;54.60;;;;;;5052394;28;20093;-67
2022/05/21 08:57:59;;;;;;;1.48;0.82;;;20.50;54.90;;;;;;5046749;28;20090;-66
2022/05/21 09:00:47;;;;;;;0.88;0.60;;;20.60;53.20;;;;;;5044486;28;20127;-67
2022/05/21 09:03:20;;;;;;;0.57;0.57;;;20.70;53.80;;;;;;5050365;28;20048;-67
2022/05/21 09:06:16;;;;;;;0.90;0.70;;;20.70;53.80;;;;;;5051187;28;20115;-65
2022/05/21 09:08:51;;;;;;;1.00;0.90;;;20.70;53.30;;;;;;5047713;28;20049;-66
2022/05/21 09:11:29;;;;;;;;;;;20.80;54.40;;;;;;5055766;28;20108;-67
2022/05/21 09:14:07;;;;;;;1.02;0.60;;;20.80;54.00;;;;;;5052884;28;19912;-67
2022/05/21 09:16:55;;;;;;;0.75;0.60;;;20.90;55.20;;;;;;5054347;28;20029;-67
2022/05/21 09:19:42;;;;;;;2.22;0.95;;;21.00;54.60;;;;;;5051090;28;20036;-68
2022/05/21 09:22:13;;;;;;;0.95;0.90;;;21.10;52.40;;;;;;5054503;28;20193;-66
2022/05/21 09:24:44;;;;;;;3.35;0.88;;;21.20;53.90;;;;;;5050615;28;20120;-67
2022/05/21 09:27:32;;;;;;;2.10;0.70;;;21.20;53.20;;;;;;5045310;28;20048;-67
2022/05/21 09:30:16;;;;;;;1.85;0.95;;;21.20;53.50;;;;;;5039355;28;20034;-68
2022/05/21 09:32:46;;;;;;;0.73;0.70;;;21.30;53.40;;;;;;5045038;28;20039;-67
2022/05/21 09:35:16;;;;;;;0.95;0.80;;;21.30;54.30;;;;;;5049954;28;20079;-68
2022/05/21 09:37:43;;;;;;;0.60;0.60;;;21.40;53.80;;;;;;5047396;28;20033;-67
2022/05/21 09:40:35;;;;;;;0.68;0.65;;;21.40;53.40;;;;;;5047939;28;20036;-67
2022/05/21 09:46:39;;;;;;;0.98;0.98;;;21.70;52.30;;;;;;5048328;28;20040;-64
2022/05/21 09:49:22;;;;;;;0.90;0.80;;;21.80;50.50;;;;;;5043828;28;20638;-67
2022/05/21 09:51:54;;;;;;;1.23;0.80;;;21.90;51.90;;;;;;5051115;28;20021;-67
2022/05/21 09:54:23;;;;;;;0.50;0.50;;;21.90;51.30;;;;;;5053073;28;20115;-67
2022/05/21 09:56:55;;;;;;;0.52;0.52;;;21.90;51.30;;;;;;5052658;28;20087;-66
2022/05/21 09:59:24;;;;;;;0.60;0.50;;;22.00;50.20;;;;;;5051938;28;20032;-66
2022/05/21 10:01:57;;;;;;;3.17;0.43;;;22.00;50.20;;;;;;5054355;28;20037;-67
2022/05/21 10:04:30;;;;;;;2.58;1.00;;;22.10;50.70;;;;;;5050004;28;20121;-67
2022/05/21 10:10:58;;;;;;;0.65;0.60;;;22.10;50.50;;;;;;5048720;28;20033;-67
2022/05/21 10:12:54;;;;;;;1.25;0.68;;;22.30;50.40;;;;;;5047149;28;20037;-67
2022/05/21 10:15:26;;;;;;;0.52;0.52;;;22.40;50.20;;;;;;5051614;28;20103;-67
2022/05/21 10:18:31;;;;;;;2.00;0.50;;;22.50;49.70;;;;;;5054149;28;20133;-67
2022/05/21 10:21:03;;;;;;;1.75;0.65;;;22.50;48.20;;;;;;5050900;28;20432;-67
2022/05/21 10:23:50;;;;;;;0.45;0.45;;;22.60;49.60;;;;;;5052978;28;20124;-67
2022/05/21 10:26:46;;;;;;;0.60;0.50;;;22.60;49.10;;;;;;5058977;28;20411;-67
2022/05/21 10:29:36;;;;;;;0.30;0.30;;;22.70;46.60;;;;;;5052293;28;20028;-67
2022/05/21 10:32:12;;;;;;;0.50;0.50;;;22.70;48.40;;;;;;5054138;28;20041;-66
2022/05/21 10:35:19;;;;;;;0.38;0.38;;;22.80;47.00;;;;;;5052372;28;20021;-67
2022/05/21 10:38:20;;;;;;;0.60;0.38;;;22.80;48.40;;;;;;5018819;28;20047;-66
2022/05/21 10:41:21;;;;;;;1.90;0.45;;;22.90;48.10;;;;;;5050001;28;20045;-67
2022/05/21 10:44:01;;;;;;;0.63;0.57;;;22.90;48.80;;;;;;5048336;28;20144;-67
2022/05/21 10:47:00;;;;;;;0.50;0.50;;;23.00;48.30;;;;;;5052664;28;20037;-67
2022/05/21 10:49:57;;;;;;;4.18;0.60;;;23.00;47.90;;;;;;5053405;28;20037;-67
2022/05/21 10:52:32;;;;;;;0.52;0.38;;;23.10;47.70;;;;;;5052205;28;20030;-66
2022/05/21 10:55:20;;;;;;;2.58;0.60;;;23.10;46.10;;;;;;5053928;28;20032;-67
2022/05/21 10:57:45;;;;;;;1.58;0.40;;;23.10;47.00;;;;;;5056799;28;20044;-67
2022/05/21 11:00:59;;;;;;;1.13;0.50;;;23.10;47.90;;;;;;5054814;28;20037;-67
2022/05/21 11:03:30;;;;;;;0.50;0.50;;;23.10;47.50;;;;;;5049309;28;20036;-67
2022/05/21 11:06:17;;;;;;;0.68;0.47;;;23.10;47.30;;;;;;5054230;28;20116;-68
2022/05/21 11:08:48;;;;;;;0.88;0.30;;;23.20;45.90;;;;;;5056376;28;20036;-67
2022/05/21 11:11:37;;;;;;;1.70;0.40;;;23.30;47.30;;;;;;5052588;28;20116;-67
2022/05/21 11:14:07;;;;;;;0.40;0.40;;;23.40;47.00;;;;;;5056318;28;20067;-66
2022/05/21 11:16:57;;;;;;;1.00;0.50;;;23.40;47.00;;;;;;5060629;28;20040;-67
2022/05/21 11:19:33;;;;;;;0.47;0.40;;;23.50;46.20;;;;;;5064337;28;20132;-67
2022/05/21 11:22:07;;;;;;;0.50;0.50;;;23.50;45.80;;;;;;5055769;28;20059;-66
2022/05/21 11:24:45;;;;;;;2.25;0.40;;;23.50;46.20;;;;;;5055426;28;20032;-67
2022/05/21 11:27:21;;;;;;;0.60;0.30;;;23.50;46.80;;;;;;5055691;28;20036;-66
2022/05/21 11:30:04;;;;;;;0.30;0.30;;;23.60;46.70;;;;;;5054908;28;20033;-67
2022/05/21 11:38:29;;;;;;;0.50;0.30;;;23.80;45.80;;;;;;5057055;28;20044;-68
2022/05/21 11:41:24;;;;;;;0.68;0.30;;;23.90;45.20;;;;;;5056241;28;20033;-67
2022/05/21 11:47:09;;;;;;;0.47;0.30;;;24.10;44.10;;;;;;5055328;28;20098;-67
2022/05/21 11:49:56;;;;;;;1.50;0.30;;;24.20;44.80;;;;;;5052063;28;20098;-67
2022/05/21 11:52:27;;;;;;;0.40;0.20;;;24.30;44.30;;;;;;5055924;28;20039;-67
2022/05/21 11:55:09;;;;;;;0.50;0.30;;;24.40;43.50;;;;;;5055875;28;20033;-66
2022/05/21 11:57:46;;;;;;;0.20;0.20;;;24.40;42.90;;;;;;5057442;28;20048;-67
2022/05/21 12:00:18;;;;;;;0.25;0.25;;;24.40;43.20;;;;;;5054404;28;20037;-66
2022/05/21 12:02:53;;;;;;;0.25;0.20;;;24.50;43.20;;;;;;5054976;28;20041;-67
2022/05/21 12:05:34;;;;;;;;;;;;;;;;;;;;;
2022/05/21 12:08:21;;;;;;;1.02;0.30;;;24.70;44.30;;;;;;5053708;28;20038;-67
2022/05/21 12:11:02;;;;;;;0.30;0.30;;;24.80;42.90;;;;;;5052361;28;20048;-67
2022/05/21 12:13:33;;;;;;;0.85;0.20;;;24.90;42.40;;;;;;5053109;28;20052;-67
2022/05/21 12:16:22;;;;;;;0.43;0.30;;;24.90;41.40;;;;;;5054466;28;20037;-67
2022/05/21 12:18:50;;;;;;;0.35;0.20;;;24.90;42.30;;;;;;5055096;28;20102;-67
2022/05/21 12:21:44;;;;;;;0.30;0.20;;;25.00;42.20;;;;;;5056554;28;20025;-67
2022/05/21 12:24:29;;;;;;;0.43;0.20;;;25.00;41.10;;;;;;5047655;28;20060;-67
2022/05/21 12:27:27;;;;;;;0.70;0.40;;;25.10;41.80;;;;;;5053786;28;20029;-67
2022/05/21 12:30:20;;;;;;;0.65;0.10;;;25.10;41.30;;;;;;5046312;28;20446;-66
2022/05/21 12:32:47;;;;;;;0.20;0.20;;;25.10;40.60;;;;;;5055840;28;20152;-67
2022/05/21 12:35:29;;;;;;;0.22;0.20;;;25.10;41.10;;;;;;5056451;28;22329;-67
2022/05/21 12:38:12;;;;;;;0.40;0.20;;;25.20;40.00;;;;;;5055129;28;20036;-67
2022/05/21 12:40:48;;;;;;;0.73;0.30;;;25.10;39.60;;;;;;5055458;28;20029;-67
2022/05/21 12:43:15;;;;;;;1.20;0.30;;;25.20;40.40;;;;;;5054291;28;20037;-67
2022/05/21 12:45:43;;;;;;;0.65;0.20;;;25.10;40.20;;;;;;5055278;28;20460;-67
2022/05/21 12:48:22;;;;;;;1.52;0.22;;;25.10;40.90;;;;;;5062254;28;20045;-67
2022/05/21 12:50:49;;;;;;;0.30;0.20;;;25.10;40.90;;;;;;5054712;28;20033;-67
2022/05/21 12:53:28;;;;;;;0.30;0.20;;;25.10;41.00;;;;;;5051674;28;20029;-67
2022/05/21 12:56:17;;;;;;;1.98;0.30;;;25.20;40.90;;;;;;5054903;28;20064;-67
2022/05/21 12:58:43;;;;;;;0.75;0.43;;;25.20;40.80;;;;;;5052985;28;20067;-67
2022/05/21 13:01:21;;;;;;;0.32;0.10;;;25.30;40.80;;;;;;5053898;28;20037;-67
2022/05/21 13:03:46;;;;;;;0.45;0.20;;;25.30;38.10;;;;;;5053763;28;20531;-67
2022/05/21 13:06:19;;;;;;;0.95;0.20;;;25.40;38.00;;;;;;5054492;28;20056;-67
2022/05/21 13:08:44;;;;;;;0.10;0.10;;;25.40;36.00;;;;;;5054309;28;20127;-68
2022/05/21 13:11:22;;;;;;;0.10;0.10;;;25.40;35.70;;;;;;5048334;28;20605;-67
2022/05/21 13:14:00;;;;;;;0.10;0.10;;;25.40;33.50;;;;;;5053578;28;20067;-67
2022/05/21 13:16:27;;;;;;;1.38;0.10;;;25.40;33.30;;;;;;5051026;28;20037;-67
2022/05/21 13:19:15;;;;;;;0.40;0.13;;;25.40;33.00;;;;;;5054126;28;20036;-67
2022/05/21 13:21:44;;;;;;;0.88;0.30;;;25.40;33.30;;;;;;5052629;28;20547;-66
2022/05/21 13:24:47;;;;;;;0.70;0.20;;;25.40;33.10;;;;;;5054882;28;20028;-68
2022/05/21 13:27:20;;;;;;;0.85;0.20;;;25.40;31.00;;;;;;5051288;28;20044;-67
2022/05/21 13:29:48;;;;;;;0.43;0.10;;;25.40;33.00;;;;;;5045070;28;20090;-67
2022/05/21 13:32:24;;;;;;;0.20;0.10;;;25.40;32.40;;;;;;5050954;28;20032;-66
2022/05/21 13:34:51;;;;;;;0.65;0.30;;;25.40;33.20;;;;;;5049474;28;20127;-67
2022/05/21 13:37:18;;;;;;;0.20;0.10;;;25.50;32.90;;;;;;5053817;28;20041;-66
2022/05/21 13:39:59;;;;;;;0.65;0.20;;;25.50;33.20;;;;;;5043046;28;20042;-67